Time;durP1;ratioP1;P1;durP2;ratioP2;P2;SDS_P1;SDS_P2;PMS_P1;PMS_P2;Temp;Humidity;BMP_temperature;BMP_pressure;BME280_temperature;BME280_humidity;BME280_pressure;Samples;Min_cycle;Max_cycle;Signal;HPM_P1;HPM_P2
2022/05/28 00:32:38;;;;;;;9.93;4.70;;;21.50;99.90;;;;;;4813355;29;20069;-92
2022/05/28 00:35:07;;;;;;;7.88;5.07;;;21.40;99.90;;;;;;4776999;29;20464;-92
2022/05/28 00:37:34;;;;;;;13.25;4.80;;;21.30;99.90;;;;;;4777104;29;20035;-93
2022/05/28 00:40:11;;;;;;;11.77;4.97;;;21.30;99.90;;;;;;4777128;29;20103;-93
2022/05/28 00:42:38;;;;;;;9.65;4.40;;;21.30;99.90;;;;;;4776886;29;20088;-92
2022/05/28 00:45:06;;;;;;;7.13;4.55;;;21.20;99.90;;;;;;4776833;29;20026;-93
2022/05/28 00:47:33;;;;;;;11.60;4.40;;;21.10;99.90;;;;;;4791543;29;20039;-93
2022/05/28 00:49:59;;;;;;;9.18;5.03;;;21.00;99.90;;;;;;4776629;29;20035;-92
2022/05/28 00:52:27;;;;;;;10.68;4.38;;;21.00;99.90;;;;;;4776745;29;20076;-92
2022/05/28 00:54:54;;;;;;;8.70;4.85;;;21.10;99.90;;;;;;4776644;29;20125;-93
2022/05/28 00:57:23;;;;;;;7.93;4.40;;;21.10;99.90;;;;;;4776635;29;20466;-93
2022/05/28 00:59:50;;;;;;;11.40;4.80;;;21.00;99.90;;;;;;4776499;29;20054;-93
2022/05/28 01:02:55;;;;;;;8.98;4.53;;;20.80;99.90;;;;;;4776948;29;20039;-92
2022/05/28 01:05:52;;;;;;;12.45;4.78;;;20.80;99.90;;;;;;4776499;29;20118;-93
2022/05/28 01:08:25;;;;;;;9.57;4.70;;;20.80;99.90;;;;;;4776320;29;20054;-93
2022/05/28 01:11:05;;;;;;;8.93;4.25;;;20.90;99.90;;;;;;4791265;29;20038;-92
2022/05/28 01:13:58;;;;;;;10.70;5.38;;;20.90;99.90;;;;;;4791424;29;20066;-93
2022/05/28 01:16:37;;;;;;;9.55;4.35;;;20.80;99.90;;;;;;4776779;29;20031;-92
2022/05/28 01:19:42;;;;;;;8.48;4.60;;;20.70;99.90;;;;;;4776686;29;20451;-92
2022/05/28 01:22:51;;;;;;;7.25;4.80;;;20.70;99.90;;;;;;4779394;29;20049;-92
2022/05/28 01:26:00;;;;;;;8.27;5.20;;;20.70;99.90;;;;;;4746231;30;20124;-92
2022/05/28 01:28:33;;;;;;;10.18;5.00;;;20.80;99.90;;;;;;4739965;30;20044;-92
2022/05/28 01:31:05;;;;;;;8.27;4.93;;;20.70;99.90;;;;;;4740354;30;20036;-92
2022/05/28 01:33:35;;;;;;;9.02;4.60;;;20.70;99.90;;;;;;4739854;30;20051;-92
2022/05/28 01:36:06;;;;;;;8.13;4.55;;;20.70;99.90;;;;;;4739992;30;20035;-93
2022/05/28 01:38:37;;;;;;;15.15;9.82;;;20.70;99.90;;;;;;4740526;30;20047;-93
2022/05/28 01:41:07;;;;;;;12.10;5.97;;;20.70;99.90;;;;;;4740238;30;20047;-92
2022/05/28 01:43:40;;;;;;;14.13;8.07;;;20.60;99.90;;;;;;4742220;30;20044;-92
2022/05/28 01:46:09;;;;;;;9.40;7.45;;;20.50;99.90;;;;;;4743787;30;20082;-93
2022/05/28 01:48:42;;;;;;;11.30;6.75;;;20.50;99.90;;;;;;4743998;30;20052;-93
2022/05/28 01:51:11;;;;;;;10.10;6.28;;;20.50;99.90;;;;;;4743863;30;20040;-92
2022/05/28 01:56:24;;;;;;;11.75;5.78;;;20.40;99.90;;;;;;4791940;29;20043;-93
2022/05/28 01:58:52;;;;;;;9.20;6.40;;;20.40;99.90;;;;;;4791604;30;20031;-94
2022/05/28 02:01:19;;;;;;;10.65;5.90;;;20.30;99.90;;;;;;4776915;30;20180;-92
2022/05/28 02:03:51;;;;;;;12.43;6.35;;;20.30;99.90;;;;;;4791249;29;20114;-92
2022/05/28 02:06:19;;;;;;;11.05;6.03;;;20.30;99.90;;;;;;4776864;30;20046;-92
2022/05/28 02:08:48;;;;;;;12.30;6.15;;;20.20;99.90;;;;;;4777031;30;20043;-93
2022/05/28 02:11:22;;;;;;;12.02;6.38;;;20.20;99.90;;;;;;4792140;29;20118;-92
2022/05/28 02:13:58;;;;;;;10.77;5.40;;;20.20;99.90;;;;;;4776306;30;20063;-92
2022/05/28 02:16:36;;;;;;;11.30;6.47;;;20.20;99.90;;;;;;4776290;30;20421;-92
2022/05/28 02:19:10;;;;;;;12.10;5.22;;;20.10;99.90;;;;;;4791110;30;20039;-92
2022/05/28 02:21:46;;;;;;;8.40;5.68;;;20.00;99.90;;;;;;4776089;30;20390;-93
2022/05/28 02:24:26;;;;;;;15.68;5.90;;;20.00;99.90;;;;;;4776252;30;20558;-93
2022/05/28 02:26:57;;;;;;;7.22;5.00;;;20.00;99.90;;;;;;4761920;30;20092;-92
2022/05/28 02:29:25;;;;;;;13.50;6.00;;;19.90;99.90;;;;;;4780565;30;20050;-92
2022/05/28 02:31:55;;;;;;;9.63;5.22;;;19.80;99.90;;;;;;4795021;29;20359;-89
2022/05/28 02:34:22;;;;;;;6.88;5.10;;;19.80;99.90;;;;;;4775875;30;20056;-92
2022/05/28 02:36:49;;;;;;;7.78;5.32;;;19.90;99.90;;;;;;4791007;29;20031;-92
2022/05/28 02:39:17;;;;;;;12.25;5.68;;;19.80;99.90;;;;;;4791391;29;20131;-92
2022/05/28 02:41:43;;;;;;;8.02;5.88;;;19.80;99.90;;;;;;4775757;30;20042;-92
2022/05/28 02:44:10;;;;;;;11.23;5.88;;;19.70;99.90;;;;;;4775897;30;20044;-90
2022/05/28 02:46:36;;;;;;;14.88;5.72;;;19.70;99.90;;;;;;4790728;30;20087;-89
2022/05/28 02:49:03;;;;;;;9.63;5.40;;;19.60;99.90;;;;;;4776216;30;20035;-90
2022/05/28 02:51:29;;;;;;;9.63;5.78;;;19.60;99.90;;;;;;4791256;29;20039;-91
2022/05/28 02:53:56;;;;;;;11.07;4.90;;;19.60;99.90;;;;;;4790476;29;20593;-88
2022/05/28 02:56:22;;;;;;;7.20;5.28;;;19.60;99.90;;;;;;4791196;29;20555;-91
2022/05/28 02:58:49;;;;;;;12.20;4.70;;;19.70;99.90;;;;;;4791409;29;20110;-91
2022/05/28 03:01:33;;;;;;;9.77;4.97;;;19.70;99.90;;;;;;4790875;29;20043;-92
2022/05/28 03:04:01;;;;;;;7.65;4.63;;;19.80;99.90;;;;;;4775747;30;20032;-91
2022/05/28 03:06:29;;;;;;;12.90;5.03;;;19.80;99.90;;;;;;4775508;30;20035;-91
2022/05/28 03:08:56;;;;;;;10.68;5.05;;;19.80;99.90;;;;;;4790254;29;20463;-90
2022/05/28 03:11:38;;;;;;;8.23;4.82;;;19.80;99.90;;;;;;4803121;30;20031;-93
2022/05/28 03:14:18;;;;;;;;;;;;;;;;;;;;;
2022/05/28 03:16:46;;;;;;;12.68;5.38;;;19.60;99.90;;;;;;4798308;30;20035;-93
2022/05/28 03:19:15;;;;;;;6.88;4.93;;;19.50;99.90;;;;;;4794333;29;20063;-93
2022/05/28 03:21:42;;;;;;;9.30;5.20;;;19.60;99.90;;;;;;4793256;30;20037;-92
2022/05/28 03:24:10;;;;;;;7.95;4.85;;;19.60;99.90;;;;;;4790951;29;20034;-92
2022/05/28 03:26:37;;;;;;;10.65;5.10;;;19.70;99.90;;;;;;4791430;30;20114;-92
2022/05/28 03:29:05;;;;;;;7.82;5.15;;;19.70;99.90;;;;;;4791656;29;20042;-92
2022/05/28 03:31:32;;;;;;;11.90;5.22;;;19.80;99.90;;;;;;4776479;30;20479;-92
2022/05/28 03:33:59;;;;;;;12.50;5.60;;;19.80;99.90;;;;;;4791103;29;20059;-92
2022/05/28 03:36:28;;;;;;;11.75;5.18;;;19.80;99.90;;;;;;4776368;30;20031;-92
2022/05/28 03:38:54;;;;;;;10.23;5.28;;;19.70;99.90;;;;;;4776689;30;20390;-93
2022/05/28 03:41:21;;;;;;;12.80;5.13;;;19.70;99.90;;;;;;4773134;30;20039;-92
2022/05/28 03:43:48;;;;;;;12.13;5.60;;;19.60;99.90;;;;;;4791038;29;20122;-92
2022/05/28 03:46:21;;;;;;;11.88;5.10;;;19.60;99.90;;;;;;4791112;29;20046;-93
2022/05/28 03:49:06;;;;;;;11.57;5.70;;;19.60;99.90;;;;;;4777626;30;20100;-92
2022/05/28 03:51:37;;;;;;;14.10;6.75;;;19.40;99.90;;;;;;4776759;30;20061;-92
2022/05/28 03:54:04;;;;;;;36.25;15.23;;;19.30;99.90;;;;;;4792355;29;20054;-92
2022/05/28 03:56:53;;;;;;;42.85;18.63;;;19.20;99.90;;;;;;4792842;29;20027;-93
2022/05/28 03:59:20;;;;;;;92.78;35.03;;;19.10;99.90;;;;;;4777306;30;20035;-93
2022/05/28 04:01:47;;;;;;;49.63;20.85;;;18.90;99.90;;;;;;4793611;29;20034;-92
2022/05/28 04:04:14;;;;;;;29.38;12.63;;;18.80;99.90;;;;;;4797006;29;20059;-92
2022/05/28 04:06:41;;;;;;;182.52;62.83;;;18.80;99.90;;;;;;4790694;29;20063;-93
2022/05/28 04:09:08;;;;;;;230.82;80.50;;;18.80;99.90;;;;;;4792014;29;20126;-93
2022/05/28 04:11:38;;;;;;;108.18;36.22;;;18.90;99.90;;;;;;4792357;30;20043;-92
2022/05/28 04:14:06;;;;;;;22.08;9.55;;;18.80;99.90;;;;;;4790899;29;20042;-92
2022/05/28 04:16:34;;;;;;;24.83;10.65;;;18.70;99.90;;;;;;4776149;30;20066;-93
2022/05/28 04:19:01;;;;;;;21.23;9.90;;;18.70;99.90;;;;;;4791859;29;20084;-93
2022/05/28 04:21:30;;;;;;;17.77;8.77;;;18.70;99.90;;;;;;4792256;29;20034;-92
2022/05/28 04:23:57;;;;;;;19.88;9.23;;;18.90;99.90;;;;;;4779258;30;20557;-93
2022/05/28 04:26:24;;;;;;;50.90;18.00;;;19.10;99.90;;;;;;4791919;30;20039;-92
2022/05/28 04:28:51;;;;;;;20.92;10.35;;;19.40;99.90;;;;;;4791291;29;20108;-92
2022/05/28 04:31:17;;;;;;;17.15;9.10;;;19.60;99.90;;;;;;4790706;29;20118;-92
2022/05/28 04:33:44;;;;;;;17.27;9.23;;;19.70;99.90;;;;;;4789922;29;20128;-92
2022/05/28 04:36:11;;;;;;;17.80;8.68;;;20.00;99.90;;;;;;4791056;29;20027;-93
2022/05/28 04:38:38;;;;;;;19.38;9.52;;;20.30;99.90;;;;;;4792287;29;20038;-92
2022/05/28 04:41:09;;;;;;;19.45;8.15;;;20.50;99.90;;;;;;4786560;30;20043;-92
2022/05/28 04:43:36;;;;;;;17.42;7.18;;;20.70;99.90;;;;;;4797608;29;20039;-93
2022/05/28 04:46:03;;;;;;;22.27;9.80;;;21.00;99.90;;;;;;4775059;30;20035;-92
2022/05/28 04:48:30;;;;;;;18.33;9.40;;;21.40;99.90;;;;;;4789684;29;20046;-93
2022/05/28 04:50:57;;;;;;;19.35;8.13;;;21.60;99.90;;;;;;4789431;30;20501;-92
2022/05/28 04:53:27;;;;;;;14.82;8.45;;;22.00;99.90;;;;;;4789432;30;20039;-92
2022/05/28 04:55:53;;;;;;;13.45;7.65;;;22.30;99.90;;;;;;4789845;29;20031;-92
2022/05/28 04:58:20;;;;;;;14.13;7.35;;;22.10;99.90;;;;;;4790071;30;20126;-93
2022/05/28 05:00:57;;;;;;;9.07;6.35;;;22.40;99.90;;;;;;4790330;29;20031;-93
2022/05/28 05:03:24;;;;;;;11.18;6.00;;;22.30;99.90;;;;;;4790282;29;20379;-93
2022/05/28 05:05:51;;;;;;;11.90;6.20;;;22.40;99.90;;;;;;4790653;30;20031;-93
2022/05/28 05:08:17;;;;;;;13.10;6.07;;;22.70;99.90;;;;;;4792902;29;20043;-94
2022/05/28 05:10:48;;;;;;;11.32;5.82;;;23.90;99.90;;;;;;4792164;30;20117;-93
2022/05/28 05:13:15;;;;;;;10.30;5.03;;;25.30;99.90;;;;;;4792564;29;20063;-94
2022/05/28 05:15:42;;;;;;;12.65;5.30;;;26.10;99.90;;;;;;4792017;29;20123;-93
2022/05/28 05:18:09;;;;;;;7.60;5.45;;;26.70;99.90;;;;;;4777554;30;20036;-94
2022/05/28 05:20:36;;;;;;;8.45;5.07;;;27.60;99.90;;;;;;4793305;29;20039;-94
2022/05/28 05:23:03;;;;;;;8.18;5.78;;;27.80;99.90;;;;;;4776511;30;20035;-94
2022/05/28 05:25:31;;;;;;;8.98;5.60;;;27.90;99.90;;;;;;4792619;29;20569;-94
2022/05/28 05:27:59;;;;;;;8.65;6.63;;;28.10;99.90;;;;;;4793176;29;20050;-94
2022/05/28 05:30:26;;;;;;;9.88;6.07;;;27.90;99.90;;;;;;4792186;30;20035;-93
2022/05/28 05:32:53;;;;;;;9.75;6.78;;;28.10;99.90;;;;;;4775655;30;20048;-94
2022/05/28 05:35:20;;;;;;;7.32;6.35;;;28.00;99.90;;;;;;4789107;29;20043;-94
2022/05/28 05:37:48;;;;;;;9.00;6.32;;;27.40;99.90;;;;;;4789151;29;20042;-94
2022/05/28 05:40:15;;;;;;;7.82;6.38;;;27.40;99.90;;;;;;4791744;29;20054;-94
2022/05/28 05:42:42;;;;;;;10.68;6.45;;;27.50;99.90;;;;;;4782717;29;20031;-93
2022/05/28 05:45:18;;;;;;;6.30;5.65;;;28.00;99.90;;;;;;4781280;30;20020;-93
2022/05/28 06:03:31;;;;;;;10.63;5.80;;;26.70;99.90;;;;;;5170107;24;20043;-93
2022/05/28 06:18:49;;;;;;;6.85;6.25;;;29.60;99.90;;;;;;4803897;24;20463;-94
2022/05/28 06:21:37;;;;;;;7.90;6.30;;;30.60;99.90;;;;;;4776785;29;20022;-93
2022/05/28 06:35:34;;;;;;;10.20;6.68;;;30.50;99.90;;;;;;5526636;24;20055;-95
2022/05/28 06:52:40;;;;;;;9.32;5.68;;;29.60;99.90;;;;;;5250910;24;20062;-91
2022/05/28 06:55:08;;;;;;;6.18;4.82;;;30.10;99.90;;;;;;4779483;29;20095;-91
2022/05/28 06:57:35;;;;;;;6.00;5.07;;;30.20;99.90;;;;;;4794227;29;20034;-90
2022/05/28 07:00:02;;;;;;;5.90;5.30;;;31.10;99.90;;;;;;4782344;29;20031;-90
2022/05/28 07:02:28;;;;;;;8.80;6.20;;;31.50;99.90;;;;;;4794383;29;20034;-92
2022/05/28 07:04:55;;;;;;;10.05;6.43;;;31.80;99.90;;;;;;4794759;29;20087;-92
2022/05/28 07:07:22;;;;;;;5.88;5.38;;;31.60;99.90;;;;;;4779182;29;20094;-90
2022/05/28 07:09:49;;;;;;;7.40;6.40;;;32.30;99.90;;;;;;4778498;29;20106;-91
2022/05/28 07:12:15;;;;;;;7.85;6.03;;;32.80;99.90;;;;;;4778344;29;20035;-90
2022/05/28 07:14:44;;;;;;;8.07;6.60;;;32.60;99.90;;;;;;4778834;29;20066;-90
2022/05/28 07:17:10;;;;;;;8.73;6.40;;;32.20;99.90;;;;;;4790590;29;20122;-90
2022/05/28 07:19:37;;;;;;;8.23;7.32;;;30.80;99.90;;;;;;4778243;29;20035;-90
2022/05/28 07:22:04;;;;;;;7.63;5.57;;;30.20;99.90;;;;;;4778178;29;20038;-90
2022/05/28 07:24:31;;;;;;;16.73;6.80;;;30.50;99.90;;;;;;4778506;29;20558;-90
2022/05/28 07:26:58;;;;;;;6.97;6.05;;;30.60;99.90;;;;;;4778214;29;20075;-90
2022/05/28 07:29:24;;;;;;;9.75;5.20;;;30.10;99.90;;;;;;4778677;29;20113;-91
2022/05/28 07:31:51;;;;;;;7.30;6.10;;;30.10;99.90;;;;;;4777930;29;20031;-91
2022/05/28 07:34:17;;;;;;;7.05;6.38;;;30.50;99.90;;;;;;4778371;29;20035;-90
2022/05/28 07:36:48;;;;;;;9.35;6.85;;;30.50;99.90;;;;;;4778661;29;20046;-89
2022/05/28 07:39:15;;;;;;;7.03;6.22;;;30.20;99.90;;;;;;4793593;29;20130;-89
2022/05/28 07:41:43;;;;;;;8.35;6.65;;;30.20;99.90;;;;;;4777254;29;20027;-89
2022/05/28 07:44:11;;;;;;;12.10;6.82;;;30.80;99.90;;;;;;4780641;29;20035;-92
2022/05/28 07:46:37;;;;;;;18.15;7.82;;;31.00;99.90;;;;;;4778438;29;20023;-90
2022/05/28 07:49:04;;;;;;;8.88;7.43;;;32.10;99.90;;;;;;4778066;29;20051;-93
2022/05/28 07:51:31;;;;;;;8.10;7.35;;;32.70;99.90;;;;;;4777805;29;20035;-94
2022/05/28 07:53:57;;;;;;;8.13;7.45;;;32.60;99.90;;;;;;4776092;30;20039;-91
2022/05/28 07:56:26;;;;;;;12.85;7.10;;;32.10;99.90;;;;;;4789614;30;20478;-91
2022/05/28 07:58:58;;;;;;;9.02;7.10;;;32.30;99.90;;;;;;4804331;29;20057;-91
2022/05/28 08:01:29;;;;;;;8.02;7.32;;;32.90;99.90;;;;;;4783738;29;20030;-92
2022/05/28 08:03:59;;;;;;;11.10;7.32;;;32.90;99.90;;;;;;4802100;29;20373;-92
2022/05/28 08:06:27;;;;;;;9.27;7.32;;;33.20;99.90;;;;;;4784621;30;20104;-92
2022/05/28 08:08:55;;;;;;;8.90;7.18;;;33.20;99.90;;;;;;4784573;29;20065;-92
2022/05/28 08:11:22;;;;;;;14.02;7.32;;;33.30;99.90;;;;;;4784978;30;20055;-93
2022/05/28 08:13:50;;;;;;;9.93;6.85;;;32.40;99.90;;;;;;4774577;30;20036;-91
2022/05/28 08:16:17;;;;;;;9.73;6.68;;;31.30;99.90;;;;;;4774474;30;20118;-92
2022/05/28 08:18:44;;;;;;;9.63;6.10;;;30.40;99.90;;;;;;4775002;30;20043;-92
2022/05/28 08:24:03;;;;;;;9.25;4.90;;;28.90;99.90;;;;;;4779486;30;20501;-93
2022/05/28 08:26:31;;;;;;;12.27;4.40;;;28.80;99.90;;;;;;4761175;30;20031;-93
2022/05/28 08:28:58;;;;;;;6.63;4.00;;;28.60;99.90;;;;;;4777375;30;20042;-92
2022/05/28 08:31:25;;;;;;;8.18;4.05;;;29.20;99.90;;;;;;4776824;30;20087;-91
2022/05/28 08:33:54;;;;;;;10.23;4.35;;;29.50;99.90;;;;;;4776464;30;20175;-92
2022/05/28 08:36:21;;;;;;;6.50;4.80;;;29.30;99.90;;;;;;4774863;30;20032;-93
2022/05/28 08:38:47;;;;;;;7.57;4.90;;;29.30;99.90;;;;;;4774197;30;20470;-93
2022/05/28 08:41:23;;;;;;;15.10;5.82;;;29.70;99.90;;;;;;4774988;30;20043;-92
2022/05/28 08:44:18;;;;;;;7.10;5.00;;;30.50;99.90;;;;;;4774508;30;20149;-93
2022/05/28 08:46:56;;;;;;;10.15;5.78;;;30.80;99.90;;;;;;4773830;30;20134;-93
2022/05/28 08:49:27;;;;;;;8.68;7.68;;;31.30;99.90;;;;;;4773681;30;20078;-92
2022/05/28 08:52:33;;;;;;;14.02;7.45;;;31.30;99.90;;;;;;4773451;30;20047;-93
2022/05/28 08:55:06;;;;;;;8.10;7.25;;;31.70;99.90;;;;;;4683518;30;20104;-92
2022/05/28 08:57:59;;;;;;;9.68;7.57;;;32.10;99.90;;;;;;4673438;30;20091;-92
2022/05/28 09:00:37;;;;;;;9.50;7.90;;;32.30;99.90;;;;;;4675381;30;20084;-94
2022/05/28 09:03:22;;;;;;;13.75;8.45;;;32.00;99.90;;;;;;4685068;30;20061;-92
2022/05/28 09:05:55;;;;;;;9.25;8.20;;;30.80;99.90;;;;;;4670638;30;20061;-92
2022/05/28 09:08:46;;;;;;;9.70;8.77;;;29.90;99.90;;;;;;4670386;30;20511;-94
2022/05/28 09:11:22;;;;;;;10.65;8.38;;;30.30;99.90;;;;;;4669469;30;20493;-92
2022/05/28 09:13:51;;;;;;;10.43;9.40;;;30.00;99.90;;;;;;4669763;30;20163;-93
2022/05/28 09:16:46;;;;;;;11.25;9.40;;;30.10;99.90;;;;;;4672437;30;20087;-92
2022/05/28 09:19:21;;;;;;;9.52;8.73;;;30.70;99.90;;;;;;4669111;30;20104;-93
2022/05/28 09:21:49;;;;;;;12.50;8.95;;;31.30;99.90;;;;;;4669700;30;20046;-93
2022/05/28 09:24:42;;;;;;;10.45;8.73;;;32.00;99.90;;;;;;4673762;30;20058;-91
2022/05/28 09:27:53;;;;;;;13.60;9.55;;;31.90;99.90;;;;;;4667776;30;20127;-91
2022/05/28 09:30:20;;;;;;;10.48;9.32;;;31.30;99.90;;;;;;4788757;30;20040;-91
2022/05/28 09:32:46;;;;;;;9.60;8.70;;;31.70;99.90;;;;;;4759133;30;20027;-92
2022/05/28 09:35:50;;;;;;;9.93;9.20;;;31.70;99.90;;;;;;4761511;30;20043;-92
2022/05/28 09:38:24;;;;;;;10.32;9.23;;;31.80;99.50;;;;;;4783201;29;20429;-92
2022/05/28 09:41:09;;;;;;;10.57;9.70;;;31.50;99.10;;;;;;4761573;30;20078;-92
2022/05/28 09:43:39;;;;;;;10.18;9.23;;;31.30;98.80;;;;;;4758821;30;20035;-91
2022/05/28 09:46:29;;;;;;;12.07;10.52;;;31.20;99.30;;;;;;4774251;30;20032;-92
2022/05/28 09:49:16;;;;;;;12.60;10.32;;;31.50;97.30;;;;;;4786567;30;20035;-92
2022/05/28 09:52:14;;;;;;;10.75;9.80;;;31.70;96.80;;;;;;4787371;29;20039;-93
2022/05/28 09:55:34;;;;;;;9.82;8.98;;;31.80;97.10;;;;;;4810397;29;20070;-93
2022/05/28 09:58:56;;;;;;;9.25;8.65;;;31.40;99.30;;;;;;4809772;29;20038;-93
2022/05/28 10:02:07;;;;;;;8.90;8.10;;;30.50;99.40;;;;;;4782317;29;20485;-93
2022/05/28 10:05:00;;;;;;;9.43;8.38;;;30.30;99.80;;;;;;4717416;30;20037;-92
2022/05/28 10:07:42;;;;;;;9.90;8.93;;;29.70;99.90;;;;;;4690332;30;20068;-94
2022/05/28 10:10:42;;;;;;;10.48;9.05;;;29.20;99.90;;;;;;4702217;30;20053;-92
2022/05/28 10:13:30;;;;;;;;;;;;;;;;;;;;;
2022/05/28 10:23:52;;;;;;;10.88;10.07;;;30.70;96.00;;;;;;4596104;31;20127;-92
2022/05/28 10:27:12;;;;;;;19.55;11.77;;;30.90;96.40;;;;;;4585950;31;20388;-92
2022/05/28 10:30:24;;;;;;;12.48;11.18;;;31.50;94.80;;;;;;4704630;24;20154;-94
2022/05/28 10:32:56;;;;;;;11.15;10.02;;;31.60;95.10;;;;;;4780059;29;20041;-93
2022/05/28 10:35:39;;;;;;;12.50;10.18;;;31.10;95.10;;;;;;4784430;29;20492;-93
2022/05/28 10:42:37;;;;;;;14.55;13.18;;;30.30;94.50;;;;;;4880236;24;20225;-94
2022/05/28 10:45:11;;;;;;;15.25;13.77;;;30.60;92.30;;;;;;4790923;29;20062;-93
2022/05/28 10:48:24;;;;;;;12.90;11.45;;;31.20;91.60;;;;;;4803440;29;20098;-94
2022/05/28 10:51:11;;;;;;;14.18;12.00;;;31.50;91.60;;;;;;4787874;30;20042;-93
2022/05/28 10:54:14;;;;;;;12.82;11.52;;;30.80;91.90;;;;;;4755072;30;20035;-93
2022/05/28 11:00:49;;;;;;;12.27;11.23;;;30.40;91.50;;;;;;5701068;24;20026;-94
2022/05/28 11:03:44;;;;;;;13.63;11.20;;;30.10;91.80;;;;;;4745456;30;20082;-93
2022/05/28 11:06:29;;;;;;;12.70;11.70;;;30.30;91.60;;;;;;4749826;30;20036;-92
2022/05/28 11:09:09;;;;;;;13.27;12.07;;;30.90;90.70;;;;;;4749769;30;20044;-93
2022/05/28 11:12:04;;;;;;;12.50;11.32;;;30.90;91.60;;;;;;4739653;30;20036;-91
2022/05/28 11:15:08;;;;;;;12.63;11.43;;;31.20;91.90;;;;;;4735636;30;20044;-92
2022/05/28 11:17:59;;;;;;;18.48;11.57;;;31.20;91.00;;;;;;4750384;30;20509;-93
2022/05/28 11:20:50;;;;;;;14.50;13.40;;;31.50;91.70;;;;;;4726725;30;20040;-91
2022/05/28 11:23:51;;;;;;;19.13;17.17;;;31.00;91.30;;;;;;4755955;30;20090;-92
2022/05/28 11:33:28;;;;;;;14.10;12.82;;;32.40;88.60;;;;;;5062451;24;20051;-92
2022/05/28 11:39:44;;;;;;;13.10;12.10;;;32.10;85.10;;;;;;5051368;24;20138;-94
2022/05/28 11:53:15;;;;;;;12.90;12.15;;;30.20;87.20;;;;;;4820501;29;20057;-95
2022/05/28 11:55:45;;;;;;;12.93;11.88;;;30.70;87.20;;;;;;4757280;30;20040;-92
2022/05/28 12:01:58;;;;;;;12.93;11.60;;;30.70;87.10;;;;;;4808126;29;20079;-91
2022/05/28 12:04:24;;;;;;;11.85;11.10;;;30.90;87.40;;;;;;4792289;29;20088;-90
2022/05/28 12:07:06;;;;;;;12.85;11.93;;;30.30;89.90;;;;;;4777588;29;20031;-91
2022/05/28 12:09:40;;;;;;;11.73;11.00;;;30.30;88.20;;;;;;4792774;29;20066;-91
2022/05/28 12:12:18;;;;;;;11.73;10.90;;;30.20;88.90;;;;;;4792382;29;20035;-93
2022/05/28 12:14:51;;;;;;;11.68;10.70;;;29.70;89.80;;;;;;4793227;29;20038;-92
2022/05/28 12:17:40;;;;;;;12.30;11.35;;;29.70;89.40;;;;;;4792550;29;20039;-94
2022/05/28 12:20:12;;;;;;;12.27;11.32;;;29.70;89.80;;;;;;4777449;29;20031;-91
2022/05/28 12:23:01;;;;;;;11.40;10.70;;;29.30;90.00;;;;;;4792493;29;20526;-92
2022/05/28 12:25:38;;;;;;;11.65;10.98;;;29.50;90.50;;;;;;4792327;29;20039;-91
2022/05/28 12:28:25;;;;;;;11.60;10.70;;;29.20;90.10;;;;;;4791648;29;20066;-92
2022/05/28 12:30:57;;;;;;;11.57;10.63;;;29.10;89.70;;;;;;4792001;29;20039;-92
2022/05/28 12:33:31;;;;;;;12.02;10.98;;;29.40;89.30;;;;;;4792482;29;20064;-92
2022/05/28 12:36:27;;;;;;;11.63;10.93;;;29.60;88.10;;;;;;4792455;29;20043;-92
2022/05/28 12:39:23;;;;;;;12.02;11.20;;;29.70;88.20;;;;;;4777657;29;20058;-93
2022/05/28 12:41:59;;;;;;;11.80;10.85;;;29.60;88.10;;;;;;4792069;29;20043;-92
2022/05/28 12:44:27;;;;;;;12.70;10.90;;;29.70;89.70;;;;;;4792032;29;20031;-91
2022/05/28 12:46:58;;;;;;;12.20;11.20;;;29.70;89.40;;;;;;4791488;29;20444;-90
2022/05/28 12:49:59;;;;;;;12.00;11.23;;;29.50;89.00;;;;;;4791869;29;20038;-94
2022/05/28 12:52:40;;;;;;;12.27;11.02;;;29.70;86.90;;;;;;4778410;29;20015;-93
2022/05/28 12:55:29;;;;;;;12.07;11.18;;;29.50;86.30;;;;;;4777268;29;20038;-92
2022/05/28 12:58:30;;;;;;;11.60;10.93;;;29.60;88.40;;;;;;4776683;29;20046;-91
2022/05/28 13:01:03;;;;;;;12.25;11.07;;;29.70;88.20;;;;;;4722906;30;20056;-91
2022/05/28 13:03:41;;;;;;;12.20;11.50;;;29.70;87.80;;;;;;4737416;30;20039;-91
2022/05/28 13:06:23;;;;;;;12.48;11.48;;;29.40;86.70;;;;;;4737425;30;20044;-93
2022/05/28 13:09:01;;;;;;;12.20;11.02;;;29.10;87.30;;;;;;4737454;30;20049;-88
2022/05/28 13:11:54;;;;;;;12.18;11.20;;;29.00;89.40;;;;;;4737398;30;20066;-89
2022/05/28 13:14:38;;;;;;;11.43;10.60;;;29.00;90.20;;;;;;4737765;30;20080;-91
2022/05/28 13:17:13;;;;;;;;;;;29.20;90.80;;;;;;4738186;30;20047;-93
2022/05/28 13:20:00;;;;;;;11.38;10.52;;;29.60;91.00;;;;;;4725464;30;20074;-93
2022/05/28 13:22:32;;;;;;;12.02;11.00;;;29.60;90.30;;;;;;4726812;30;20399;-92
2022/05/28 13:26:01;;;;;;;11.48;10.50;;;28.90;90.10;;;;;;4725128;30;20051;-93
2022/05/28 13:28:59;;;;;;;11.82;11.02;;;28.70;90.70;;;;;;4739266;30;20052;-94
2022/05/28 13:31:35;;;;;;;11.40;10.48;;;29.00;90.60;;;;;;4722816;30;20048;-92
2022/05/28 13:34:04;;;;;;;11.98;11.05;;;29.00;91.10;;;;;;4737389;30;20040;-94
2022/05/28 13:36:33;;;;;;;12.15;11.05;;;28.90;90.90;;;;;;4746320;29;20508;-92
2022/05/28 13:39:01;;;;;;;11.90;11.10;;;28.90;90.80;;;;;;4790810;29;20039;-94
2022/05/28 13:41:34;;;;;;;12.52;11.38;;;29.20;89.70;;;;;;4791216;29;20030;-92
2022/05/28 13:44:08;;;;;;;11.87;10.97;;;29.00;91.20;;;;;;4792232;29;20561;-92
2022/05/28 13:46:35;;;;;;;;;;;29.30;90.90;;;;;;4792556;29;20846;-91
2022/05/28 13:49:18;;;;;;;11.75;10.65;;;29.10;91.60;;;;;;4792806;29;19917;-93
2022/05/28 13:52:13;;;;;;;11.40;10.70;;;29.50;91.80;;;;;;4791234;29;20062;-92
2022/05/28 13:54:56;;;;;;;11.55;10.70;;;29.80;90.90;;;;;;4789905;29;20039;-90
2022/05/28 13:57:35;;;;;;;12.02;11.05;;;29.60;90.60;;;;;;4791216;29;20038;-91
2022/05/28 14:00:05;;;;;;;11.43;10.82;;;29.20;89.00;;;;;;4773012;30;20104;-90
2022/05/28 14:02:31;;;;;;;12.45;11.55;;;29.20;89.30;;;;;;4788257;30;20054;-89
2022/05/28 14:05:00;;;;;;;11.63;10.90;;;29.20;87.30;;;;;;4772907;30;20031;-90
2022/05/28 14:07:31;;;;;;;11.88;10.90;;;28.90;89.20;;;;;;4772886;30;20039;-92
2022/05/28 14:10:01;;;;;;;12.82;11.82;;;29.10;90.10;;;;;;4803122;29;20035;-90
2022/05/28 14:12:41;;;;;;;13.15;11.90;;;29.10;86.40;;;;;;4772895;30;20031;-90
2022/05/28 14:15:17;;;;;;;11.95;11.15;;;29.00;86.20;;;;;;4802682;29;20031;-92
2022/05/28 14:17:45;;;;;;;11.60;10.55;;;29.10;88.00;;;;;;4773576;30;20063;-92
2022/05/28 14:20:32;;;;;;;11.52;10.57;;;29.00;90.60;;;;;;4773588;30;20032;-91
2022/05/28 14:23:04;;;;;;;11.00;10.50;;;29.00;90.70;;;;;;4772981;30;20063;-93
2022/05/28 14:25:35;;;;;;;11.18;10.20;;;28.80;91.10;;;;;;4788228;30;20032;-93
2022/05/28 14:28:07;;;;;;;11.40;10.80;;;28.70;91.10;;;;;;4773161;30;20046;-91
2022/05/28 14:30:37;;;;;;;11.98;10.98;;;28.80;90.90;;;;;;4772937;30;20040;-94
2022/05/28 14:33:10;;;;;;;10.82;10.10;;;28.50;90.40;;;;;;4773122;30;20031;-92
2022/05/28 14:35:45;;;;;;;11.73;10.80;;;28.40;91.60;;;;;;4774801;30;20126;-93
2022/05/28 14:38:23;;;;;;;10.95;10.02;;;28.20;92.10;;;;;;4804395;29;20124;-91
2022/05/28 14:40:52;;;;;;;10.65;9.73;;;28.30;92.60;;;;;;4802854;29;20035;-91
2022/05/28 14:43:27;;;;;;;10.70;9.88;;;28.40;93.30;;;;;;4787335;29;20088;-90
2022/05/28 14:46:10;;;;;;;11.27;10.02;;;28.70;92.90;;;;;;4787759;29;20035;-89
2022/05/28 14:48:37;;;;;;;9.95;9.27;;;28.70;92.40;;;;;;4772753;30;20112;-91
2022/05/28 14:51:06;;;;;;;9.70;9.02;;;28.70;94.10;;;;;;4790009;29;20506;-91
2022/05/28 14:53:41;;;;;;;9.75;8.93;;;28.50;94.00;;;;;;4790849;30;20044;-92
2022/05/28 14:56:12;;;;;;;10.18;9.18;;;28.60;94.20;;;;;;4790796;30;20063;-93
2022/05/28 14:58:59;;;;;;;10.23;9.15;;;28.30;93.90;;;;;;4775956;30;20035;-90
2022/05/28 15:01:37;;;;;;;9.75;8.77;;;27.90;94.30;;;;;;4775743;30;20044;-93
2022/05/28 15:04:11;;;;;;;10.25;9.32;;;27.50;94.90;;;;;;4791006;29;20047;-91
2022/05/28 15:06:59;;;;;;;11.25;9.00;;;27.50;93.70;;;;;;4790659;29;20104;-90
2022/05/28 15:09:29;;;;;;;9.55;8.65;;;27.70;94.40;;;;;;4775486;30;20043;-91
2022/05/28 15:12:23;;;;;;;10.02;8.90;;;27.80;95.20;;;;;;4790672;29;20096;-90
2022/05/28 15:14:50;;;;;;;9.70;8.70;;;28.00;95.00;;;;;;4790746;30;20039;-91
2022/05/28 15:17:17;;;;;;;14.55;8.50;;;28.20;95.40;;;;;;4790075;29;20024;-92
2022/05/28 15:19:43;;;;;;;9.50;8.82;;;28.40;94.90;;;;;;4789935;30;20039;-91
2022/05/28 15:22:21;;;;;;;8.80;8.00;;;28.40;95.30;;;;;;4776227;30;20092;-92
2022/05/28 15:24:50;;;;;;;8.65;7.97;;;28.20;94.80;;;;;;4790456;29;20036;-91
2022/05/28 15:27:17;;;;;;;9.30;8.48;;;27.70;95.20;;;;;;4790208;29;20478;-93
2022/05/28 15:29:44;;;;;;;8.95;8.30;;;27.70;95.20;;;;;;4775655;30;20039;-94
2022/05/28 15:32:18;;;;;;;9.60;8.48;;;27.70;95.40;;;;;;4790278;29;20122;-92
2022/05/28 15:34:48;;;;;;;9.45;8.75;;;27.50;94.70;;;;;;4790237;30;20405;-92